sensor_id;sensor_type;location;lat;lon;timestamp;P1;durP1;ratioP1;P2;durP2;ratioP2
31770;SDS011;18343;50.152;8.182;2023-12-07T00:02:17;31.85;;;17.13;;
31770;SDS011;18343;50.152;8.182;2023-12-07T00:05:04;33.65;;;17.25;;
31770;SDS011;18343;50.152;8.182;2023-12-07T00:07:49;31.35;;;16.30;;
31770;SDS011;18343;50.152;8.182;2023-12-07T00:10:34;31.85;;;16.63;;
31770;SDS011;18343;50.152;8.182;2023-12-07T00:13:21;36.40;;;16.90;;
31770;SDS011;18343;50.152;8.182;2023-12-07T00:16:06;30.33;;;16.85;;
31770;SDS011;18343;50.152;8.182;2023-12-07T00:18:51;33.72;;;16.95;;
31770;SDS011;18343;50.152;8.182;2023-12-07T00:21:35;29.70;;;15.93;;
31770;SDS011;18343;50.152;8.182;2023-12-07T00:24:20;30.10;;;16.38;;
31770;SDS011;18343;50.152;8.182;2023-12-07T00:27:05;30.88;;;16.83;;
31770;SDS011;18343;50.152;8.182;2023-12-07T00:29:51;28.20;;;16.40;;
31770;SDS011;18343;50.152;8.182;2023-12-07T00:32:35;30.85;;;16.73;;
31770;SDS011;18343;50.152;8.182;2023-12-07T00:35:20;36.78;;;18.83;;
31770;SDS011;18343;50.152;8.182;2023-12-07T00:38:05;32.03;;;15.98;;
31770;SDS011;18343;50.152;8.182;2023-12-07T00:40:49;26.33;;;16.27;;
31770;SDS011;18343;50.152;8.182;2023-12-07T00:43:34;31.33;;;16.83;;
31770;SDS011;18343;50.152;8.182;2023-12-07T00:46:20;28.02;;;15.02;;
31770;SDS011;18343;50.152;8.182;2023-12-07T00:49:05;32.17;;;17.42;;
31770;SDS011;18343;50.152;8.182;2023-12-07T00:51:50;36.92;;;19.20;;
31770;SDS011;18343;50.152;8.182;2023-12-07T00:54:34;42.42;;;20.42;;
31770;SDS011;18343;50.152;8.182;2023-12-07T00:57:19;32.92;;;17.17;;
31770;SDS011;18343;50.152;8.182;2023-12-07T01:00:04;34.22;;;15.85;;
31770;SDS011;18343;50.152;8.182;2023-12-07T01:02:51;32.55;;;17.65;;
31770;SDS011;18343;50.152;8.182;2023-12-07T01:05:36;36.35;;;18.35;;
31770;SDS011;18343;50.152;8.182;2023-12-07T01:08:21;31.33;;;16.48;;
31770;SDS011;18343;50.152;8.182;2023-12-07T01:11:05;30.90;;;16.83;;
31770;SDS011;18343;50.152;8.182;2023-12-07T01:13:50;31.60;;;17.83;;
31770;SDS011;18343;50.152;8.182;2023-12-07T01:16:34;37.47;;;16.70;;
31770;SDS011;18343;50.152;8.182;2023-12-07T01:19:20;33.50;;;18.08;;
31770;SDS011;18343;50.152;8.182;2023-12-07T01:22:05;36.50;;;18.20;;
31770;SDS011;18343;50.152;8.182;2023-12-07T01:24:50;36.35;;;17.45;;
31770;SDS011;18343;50.152;8.182;2023-12-07T01:27:35;32.90;;;18.48;;
31770;SDS011;18343;50.152;8.182;2023-12-07T01:30:19;38.63;;;17.63;;
31770;SDS011;18343;50.152;8.182;2023-12-07T01:33:04;31.90;;;17.15;;
31770;SDS011;18343;50.152;8.182;2023-12-07T01:35:50;32.78;;;16.80;;
31770;SDS011;18343;50.152;8.182;2023-12-07T01:38:35;34.53;;;17.73;;
31770;SDS011;18343;50.152;8.182;2023-12-07T01:41:19;34.20;;;16.25;;
31770;SDS011;18343;50.152;8.182;2023-12-07T01:44:04;31.25;;;16.67;;
31770;SDS011;18343;50.152;8.182;2023-12-07T01:46:49;33.53;;;16.52;;
31770;SDS011;18343;50.152;8.182;2023-12-07T01:49:33;30.05;;;16.20;;
31770;SDS011;18343;50.152;8.182;2023-12-07T01:52:20;33.25;;;16.33;;
31770;SDS011;18343;50.152;8.182;2023-12-07T01:55:08;30.95;;;16.25;;
31770;SDS011;18343;50.152;8.182;2023-12-07T01:57:53;29.48;;;15.48;;
31770;SDS011;18343;50.152;8.182;2023-12-07T02:00:39;31.63;;;16.60;;
31770;SDS011;18343;50.152;8.182;2023-12-07T02:03:24;32.10;;;17.33;;
31770;SDS011;18343;50.152;8.182;2023-12-07T02:06:10;31.60;;;16.08;;
31770;SDS011;18343;50.152;8.182;2023-12-07T02:08:56;30.85;;;16.40;;
31770;SDS011;18343;50.152;8.182;2023-12-07T02:11:40;30.90;;;16.15;;
31770;SDS011;18343;50.152;8.182;2023-12-07T02:14:25;46.05;;;16.67;;
31770;SDS011;18343;50.152;8.182;2023-12-07T02:17:13;104.70;;;17.75;;
31770;SDS011;18343;50.152;8.182;2023-12-07T02:20:05;53.65;;;16.30;;
31770;SDS011;18343;50.152;8.182;2023-12-07T02:22:59;29.40;;;15.52;;
31770;SDS011;18343;50.152;8.182;2023-12-07T02:25:51;26.63;;;15.18;;
31770;SDS011;18343;50.152;8.182;2023-12-07T02:28:39;29.90;;;15.88;;
31770;SDS011;18343;50.152;8.182;2023-12-07T02:31:23;31.05;;;16.15;;
31770;SDS011;18343;50.152;8.182;2023-12-07T02:34:08;32.65;;;16.52;;
31770;SDS011;18343;50.152;8.182;2023-12-07T02:36:53;34.15;;;16.55;;
31770;SDS011;18343;50.152;8.182;2023-12-07T02:39:41;42.85;;;18.38;;
31770;SDS011;18343;50.152;8.182;2023-12-07T02:42:26;33.97;;;17.58;;
31770;SDS011;18343;50.152;8.182;2023-12-07T02:45:13;32.22;;;17.23;;
31770;SDS011;18343;50.152;8.182;2023-12-07T02:47:59;34.45;;;18.20;;
31770;SDS011;18343;50.152;8.182;2023-12-07T02:50:45;39.72;;;17.55;;
31770;SDS011;18343;50.152;8.182;2023-12-07T02:53:29;74.38;;;17.45;;
31770;SDS011;18343;50.152;8.182;2023-12-07T02:56:14;44.28;;;16.48;;
31770;SDS011;18343;50.152;8.182;2023-12-07T02:58:59;32.08;;;15.95;;
31770;SDS011;18343;50.152;8.182;2023-12-07T03:01:45;31.35;;;15.43;;
31770;SDS011;18343;50.152;8.182;2023-12-07T03:04:29;49.53;;;17.15;;
31770;SDS011;18343;50.152;8.182;2023-12-07T03:07:14;160.07;;;19.27;;
31770;SDS011;18343;50.152;8.182;2023-12-07T03:09:58;82.78;;;17.15;;
31770;SDS011;18343;50.152;8.182;2023-12-07T03:12:43;112.65;;;18.60;;
31770;SDS011;18343;50.152;8.182;2023-12-07T03:15:28;104.07;;;16.20;;
31770;SDS011;18343;50.152;8.182;2023-12-07T03:18:14;159.15;;;18.15;;
31770;SDS011;18343;50.152;8.182;2023-12-07T03:20:58;48.03;;;17.15;;
31770;SDS011;18343;50.152;8.182;2023-12-07T03:23:45;81.88;;;18.30;;
31770;SDS011;18343;50.152;8.182;2023-12-07T03:26:30;250.63;;;20.08;;
31770;SDS011;18343;50.152;8.182;2023-12-07T03:29:14;220.70;;;17.58;;
31770;SDS011;18343;50.152;8.182;2023-12-07T03:31:59;166.27;;;16.08;;
31770;SDS011;18343;50.152;8.182;2023-12-07T03:34:45;220.20;;;18.77;;
31770;SDS011;18343;50.152;8.182;2023-12-07T03:37:30;195.50;;;16.83;;
31770;SDS011;18343;50.152;8.182;2023-12-07T03:40:15;137.85;;;18.27;;
31770;SDS011;18343;50.152;8.182;2023-12-07T03:43:01;88.15;;;16.98;;
31770;SDS011;18343;50.152;8.182;2023-12-07T03:45:45;92.88;;;16.83;;
31770;SDS011;18343;50.152;8.182;2023-12-07T03:48:30;120.15;;;17.40;;
31770;SDS011;18343;50.152;8.182;2023-12-07T03:51:16;69.38;;;15.65;;
31770;SDS011;18343;50.152;8.182;2023-12-07T03:54:01;71.03;;;16.65;;
31770;SDS011;18343;50.152;8.182;2023-12-07T03:56:46;52.10;;;16.67;;
31770;SDS011;18343;50.152;8.182;2023-12-07T03:59:30;57.80;;;17.10;;
31770;SDS011;18343;50.152;8.182;2023-12-07T04:02:15;39.22;;;16.55;;
31770;SDS011;18343;50.152;8.182;2023-12-07T04:05:00;34.67;;;16.13;;
31770;SDS011;18343;50.152;8.182;2023-12-07T04:07:46;32.00;;;16.48;;
31770;SDS011;18343;50.152;8.182;2023-12-07T04:10:30;30.02;;;15.25;;
31770;SDS011;18343;50.152;8.182;2023-12-07T04:13:15;38.25;;;15.95;;
31770;SDS011;18343;50.152;8.182;2023-12-07T04:15:59;40.85;;;14.25;;
31770;SDS011;18343;50.152;8.182;2023-12-07T04:18:44;67.55;;;15.02;;
31770;SDS011;18343;50.152;8.182;2023-12-07T04:21:29;120.57;;;15.38;;
31770;SDS011;18343;50.152;8.182;2023-12-07T04:24:15;60.08;;;14.48;;
31770;SDS011;18343;50.152;8.182;2023-12-07T04:26:59;41.92;;;14.48;;
31770;SDS011;18343;50.152;8.182;2023-12-07T04:29:44;28.55;;;15.70;;
31770;SDS011;18343;50.152;8.182;2023-12-07T04:32:29;25.02;;;14.50;;
31770;SDS011;18343;50.152;8.182;2023-12-07T04:35:13;28.67;;;15.35;;
31770;SDS011;18343;50.152;8.182;2023-12-07T04:37:58;32.40;;;15.40;;
31770;SDS011;18343;50.152;8.182;2023-12-07T04:40:44;31.13;;;16.13;;
31770;SDS011;18343;50.152;8.182;2023-12-07T04:43:29;28.65;;;14.65;;
31770;SDS011;18343;50.152;8.182;2023-12-07T04:46:13;31.60;;;14.68;;
31770;SDS011;18343;50.152;8.182;2023-12-07T04:48:58;28.73;;;15.38;;
31770;SDS011;18343;50.152;8.182;2023-12-07T04:51:43;54.38;;;16.83;;
31770;SDS011;18343;50.152;8.182;2023-12-07T04:54:27;27.95;;;15.55;;
31770;SDS011;18343;50.152;8.182;2023-12-07T04:57:14;32.42;;;16.23;;
31770;SDS011;18343;50.152;8.182;2023-12-07T04:59:58;49.72;;;16.05;;
31770;SDS011;18343;50.152;8.182;2023-12-07T05:02:43;94.03;;;15.55;;
31770;SDS011;18343;50.152;8.182;2023-12-07T05:05:27;79.47;;;16.60;;
31770;SDS011;18343;50.152;8.182;2023-12-07T05:08:11;104.65;;;16.35;;
31770;SDS011;18343;50.152;8.182;2023-12-07T05:10:56;124.72;;;16.88;;
31770;SDS011;18343;50.152;8.182;2023-12-07T05:13:42;91.72;;;16.02;;
31770;SDS011;18343;50.152;8.182;2023-12-07T05:16:27;76.05;;;15.88;;
31770;SDS011;18343;50.152;8.182;2023-12-07T05:19:11;73.05;;;15.63;;
31770;SDS011;18343;50.152;8.182;2023-12-07T05:21:56;109.55;;;16.33;;
31770;SDS011;18343;50.152;8.182;2023-12-07T05:24:41;59.22;;;16.35;;
31770;SDS011;18343;50.152;8.182;2023-12-07T05:27:25;32.05;;;16.40;;
31770;SDS011;18343;50.152;8.182;2023-12-07T05:30:12;52.83;;;20.80;;
31770;SDS011;18343;50.152;8.182;2023-12-07T05:32:58;51.00;;;21.33;;
31770;SDS011;18343;50.152;8.182;2023-12-07T05:35:42;50.35;;;21.73;;
31770;SDS011;18343;50.152;8.182;2023-12-07T05:38:27;44.88;;;21.48;;
31770;SDS011;18343;50.152;8.182;2023-12-07T05:41:12;50.78;;;22.13;;
31770;SDS011;18343;50.152;8.182;2023-12-07T05:43:57;42.97;;;21.02;;
31770;SDS011;18343;50.152;8.182;2023-12-07T05:46:42;39.75;;;18.83;;
31770;SDS011;18343;50.152;8.182;2023-12-07T05:49:27;42.08;;;19.23;;
31770;SDS011;18343;50.152;8.182;2023-12-07T05:52:12;37.97;;;19.33;;
31770;SDS011;18343;50.152;8.182;2023-12-07T05:54:56;42.25;;;20.88;;
31770;SDS011;18343;50.152;8.182;2023-12-07T05:57:41;37.90;;;19.38;;
31770;SDS011;18343;50.152;8.182;2023-12-07T06:00:29;40.85;;;19.67;;
31770;SDS011;18343;50.152;8.182;2023-12-07T06:03:15;37.03;;;18.55;;
31770;SDS011;18343;50.152;8.182;2023-12-07T06:05:59;38.95;;;18.65;;
31770;SDS011;18343;50.152;8.182;2023-12-07T06:08:44;39.60;;;19.42;;
31770;SDS011;18343;50.152;8.182;2023-12-07T06:11:29;47.00;;;23.40;;
31770;SDS011;18343;50.152;8.182;2023-12-07T06:14:14;48.63;;;23.48;;
31770;SDS011;18343;50.152;8.182;2023-12-07T06:16:59;50.97;;;23.35;;
31770;SDS011;18343;50.152;8.182;2023-12-07T06:19:45;48.67;;;22.45;;
31770;SDS011;18343;50.152;8.182;2023-12-07T06:22:30;52.72;;;21.92;;
31770;SDS011;18343;50.152;8.182;2023-12-07T06:25:16;131.40;;;19.42;;
31770;SDS011;18343;50.152;8.182;2023-12-07T06:28:00;138.93;;;20.80;;
31770;SDS011;18343;50.152;8.182;2023-12-07T06:30:45;87.88;;;23.58;;
31770;SDS011;18343;50.152;8.182;2023-12-07T06:33:29;86.75;;;23.30;;
31770;SDS011;18343;50.152;8.182;2023-12-07T06:36:19;103.35;;;21.00;;
31770;SDS011;18343;50.152;8.182;2023-12-07T06:39:04;156.27;;;14.93;;
31770;SDS011;18343;50.152;8.182;2023-12-07T06:41:48;163.02;;;16.02;;
31770;SDS011;18343;50.152;8.182;2023-12-07T06:44:33;176.93;;;17.17;;
31770;SDS011;18343;50.152;8.182;2023-12-07T06:47:17;195.18;;;16.70;;
31770;SDS011;18343;50.152;8.182;2023-12-07T06:50:02;278.83;;;19.92;;
31770;SDS011;18343;50.152;8.182;2023-12-07T06:52:49;194.18;;;17.65;;
31770;SDS011;18343;50.152;8.182;2023-12-07T06:55:34;264.75;;;18.30;;
31770;SDS011;18343;50.152;8.182;2023-12-07T06:58:19;288.08;;;18.73;;
31770;SDS011;18343;50.152;8.182;2023-12-07T07:01:03;220.18;;;19.17;;
31770;SDS011;18343;50.152;8.182;2023-12-07T07:03:48;242.45;;;19.23;;
31770;SDS011;18343;50.152;8.182;2023-12-07T07:06:32;140.75;;;16.38;;
31770;SDS011;18343;50.152;8.182;2023-12-07T07:09:18;138.98;;;16.30;;
31770;SDS011;18343;50.152;8.182;2023-12-07T07:12:04;216.32;;;17.25;;
31770;SDS011;18343;50.152;8.182;2023-12-07T07:14:49;211.40;;;18.10;;
31770;SDS011;18343;50.152;8.182;2023-12-07T07:17:35;215.75;;;18.98;;
31770;SDS011;18343;50.152;8.182;2023-12-07T07:20:19;231.35;;;21.25;;
31770;SDS011;18343;50.152;8.182;2023-12-07T07:23:04;201.27;;;17.92;;
31770;SDS011;18343;50.152;8.182;2023-12-07T07:25:50;218.07;;;20.58;;
31770;SDS011;18343;50.152;8.182;2023-12-07T07:28:34;182.95;;;18.10;;
31770;SDS011;18343;50.152;8.182;2023-12-07T07:31:19;147.32;;;17.77;;
31770;SDS011;18343;50.152;8.182;2023-12-07T07:34:04;170.20;;;17.50;;
31770;SDS011;18343;50.152;8.182;2023-12-07T07:36:49;145.75;;;17.58;;
31770;SDS011;18343;50.152;8.182;2023-12-07T07:39:33;178.57;;;17.83;;
31770;SDS011;18343;50.152;8.182;2023-12-07T07:42:19;148.63;;;18.85;;
31770;SDS011;18343;50.152;8.182;2023-12-07T07:45:04;143.73;;;17.85;;
31770;SDS011;18343;50.152;8.182;2023-12-07T07:47:50;117.45;;;17.88;;
31770;SDS011;18343;50.152;8.182;2023-12-07T07:50:35;83.53;;;14.57;;
31770;SDS011;18343;50.152;8.182;2023-12-07T07:53:19;71.05;;;16.20;;
31770;SDS011;18343;50.152;8.182;2023-12-07T07:56:04;90.57;;;18.35;;
31770;SDS011;18343;50.152;8.182;2023-12-07T07:58:52;94.05;;;14.88;;
31770;SDS011;18343;50.152;8.182;2023-12-07T08:01:36;62.88;;;15.43;;
31770;SDS011;18343;50.152;8.182;2023-12-07T08:04:21;74.15;;;15.55;;
31770;SDS011;18343;50.152;8.182;2023-12-07T08:07:05;58.80;;;15.68;;
31770;SDS011;18343;50.152;8.182;2023-12-07T08:09:50;70.95;;;14.45;;
31770;SDS011;18343;50.152;8.182;2023-12-07T08:12:35;54.75;;;14.43;;
31770;SDS011;18343;50.152;8.182;2023-12-07T08:15:22;73.38;;;16.33;;
31770;SDS011;18343;50.152;8.182;2023-12-07T08:18:06;70.93;;;16.33;;
31770;SDS011;18343;50.152;8.182;2023-12-07T08:20:51;131.52;;;17.08;;
31770;SDS011;18343;50.152;8.182;2023-12-07T08:23:37;79.97;;;15.13;;
31770;SDS011;18343;50.152;8.182;2023-12-07T08:26:21;101.50;;;16.83;;
31770;SDS011;18343;50.152;8.182;2023-12-07T08:29:06;71.28;;;16.50;;
31770;SDS011;18343;50.152;8.182;2023-12-07T08:31:52;147.35;;;18.67;;
31770;SDS011;18343;50.152;8.182;2023-12-07T08:34:36;83.15;;;17.17;;
31770;SDS011;18343;50.152;8.182;2023-12-07T08:37:21;66.60;;;15.50;;
31770;SDS011;18343;50.152;8.182;2023-12-07T08:40:06;64.35;;;15.95;;
31770;SDS011;18343;50.152;8.182;2023-12-07T08:42:51;67.15;;;17.25;;
31770;SDS011;18343;50.152;8.182;2023-12-07T08:45:38;95.20;;;20.88;;
31770;SDS011;18343;50.152;8.182;2023-12-07T08:48:24;75.80;;;17.85;;
31770;SDS011;18343;50.152;8.182;2023-12-07T08:51:09;79.85;;;17.48;;
31770;SDS011;18343;50.152;8.182;2023-12-07T08:53:53;90.82;;;16.38;;
31770;SDS011;18343;50.152;8.182;2023-12-07T08:56:38;143.35;;;18.95;;
31770;SDS011;18343;50.152;8.182;2023-12-07T08:59:27;138.05;;;17.63;;
31770;SDS011;18343;50.152;8.182;2023-12-07T09:02:11;111.20;;;16.05;;
31770;SDS011;18343;50.152;8.182;2023-12-07T09:04:58;58.28;;;15.45;;
31770;SDS011;18343;50.152;8.182;2023-12-07T09:07:42;64.93;;;16.85;;
31770;SDS011;18343;50.152;8.182;2023-12-07T09:10:27;57.55;;;17.55;;
31770;SDS011;18343;50.152;8.182;2023-12-07T09:13:12;48.60;;;16.45;;
31770;SDS011;18343;50.152;8.182;2023-12-07T09:15:57;45.83;;;15.75;;
31770;SDS011;18343;50.152;8.182;2023-12-07T09:18:41;51.63;;;15.80;;
31770;SDS011;18343;50.152;8.182;2023-12-07T09:21:27;39.70;;;14.82;;
31770;SDS011;18343;50.152;8.182;2023-12-07T09:24:12;36.55;;;15.65;;
31770;SDS011;18343;50.152;8.182;2023-12-07T09:26:57;34.85;;;14.25;;
31770;SDS011;18343;50.152;8.182;2023-12-07T09:29:41;30.95;;;14.52;;
31770;SDS011;18343;50.152;8.182;2023-12-07T09:32:26;31.70;;;13.95;;
31770;SDS011;18343;50.152;8.182;2023-12-07T09:35:11;36.38;;;13.38;;
31770;SDS011;18343;50.152;8.182;2023-12-07T09:37:57;33.35;;;13.63;;
31770;SDS011;18343;50.152;8.182;2023-12-07T09:40:42;37.33;;;13.43;;
31770;SDS011;18343;50.152;8.182;2023-12-07T09:43:27;29.42;;;12.05;;
31770;SDS011;18343;50.152;8.182;2023-12-07T09:46:12;33.60;;;13.05;;
31770;SDS011;18343;50.152;8.182;2023-12-07T09:48:58;33.22;;;12.80;;
31770;SDS011;18343;50.152;8.182;2023-12-07T09:51:43;31.60;;;14.50;;
31770;SDS011;18343;50.152;8.182;2023-12-07T09:54:31;30.25;;;14.23;;
31770;SDS011;18343;50.152;8.182;2023-12-07T09:57:16;28.77;;;14.05;;
31770;SDS011;18343;50.152;8.182;2023-12-07T10:00:01;32.22;;;14.30;;
31770;SDS011;18343;50.152;8.182;2023-12-07T10:02:46;33.63;;;15.30;;
31770;SDS011;18343;50.152;8.182;2023-12-07T10:05:31;30.98;;;15.43;;
31770;SDS011;18343;50.152;8.182;2023-12-07T10:08:17;30.80;;;15.32;;
31770;SDS011;18343;50.152;8.182;2023-12-07T10:11:15;30.95;;;15.40;;
31770;SDS011;18343;50.152;8.182;2023-12-07T10:13:59;37.22;;;15.95;;
31770;SDS011;18343;50.152;8.182;2023-12-07T10:16:52;31.13;;;16.80;;
31770;SDS011;18343;50.152;8.182;2023-12-07T10:19:38;35.88;;;16.92;;
31770;SDS011;18343;50.152;8.182;2023-12-07T10:22:23;29.17;;;15.65;;
31770;SDS011;18343;50.152;8.182;2023-12-07T10:25:07;24.98;;;14.88;;
31770;SDS011;18343;50.152;8.182;2023-12-07T10:27:55;27.15;;;14.02;;
31770;SDS011;18343;50.152;8.182;2023-12-07T10:30:40;30.15;;;14.80;;
31770;SDS011;18343;50.152;8.182;2023-12-07T10:33:25;23.48;;;12.43;;
31770;SDS011;18343;50.152;8.182;2023-12-07T10:36:10;25.10;;;13.48;;
31770;SDS011;18343;50.152;8.182;2023-12-07T10:38:55;25.77;;;12.18;;
31770;SDS011;18343;50.152;8.182;2023-12-07T10:41:40;24.40;;;12.13;;
31770;SDS011;18343;50.152;8.182;2023-12-07T10:44:30;22.27;;;11.60;;
31770;SDS011;18343;50.152;8.182;2023-12-07T10:47:18;24.30;;;14.48;;
31770;SDS011;18343;50.152;8.182;2023-12-07T10:50:05;25.92;;;12.45;;
31770;SDS011;18343;50.152;8.182;2023-12-07T10:52:52;19.33;;;11.68;;
31770;SDS011;18343;50.152;8.182;2023-12-07T10:55:41;24.70;;;12.38;;
31770;SDS011;18343;50.152;8.182;2023-12-07T10:58:31;22.50;;;13.15;;
31770;SDS011;18343;50.152;8.182;2023-12-07T11:01:21;24.27;;;13.27;;
31770;SDS011;18343;50.152;8.182;2023-12-07T11:04:07;26.40;;;13.20;;
31770;SDS011;18343;50.152;8.182;2023-12-07T11:06:55;43.88;;;22.35;;
31770;SDS011;18343;50.152;8.182;2023-12-07T11:09:51;26.48;;;13.35;;
31770;SDS011;18343;50.152;8.182;2023-12-07T11:12:47;20.02;;;11.82;;
31770;SDS011;18343;50.152;8.182;2023-12-07T11:15:39;24.58;;;13.27;;
31770;SDS011;18343;50.152;8.182;2023-12-07T11:18:26;25.98;;;13.10;;
31770;SDS011;18343;50.152;8.182;2023-12-07T11:21:12;19.15;;;11.15;;
31770;SDS011;18343;50.152;8.182;2023-12-07T11:23:56;23.50;;;13.45;;
31770;SDS011;18343;50.152;8.182;2023-12-07T11:26:45;22.25;;;13.02;;
31770;SDS011;18343;50.152;8.182;2023-12-07T11:29:30;23.77;;;12.73;;
31770;SDS011;18343;50.152;8.182;2023-12-07T11:32:15;23.08;;;11.95;;
31770;SDS011;18343;50.152;8.182;2023-12-07T11:35:03;24.65;;;13.73;;
31770;SDS011;18343;50.152;8.182;2023-12-07T11:38:02;25.80;;;13.32;;
31770;SDS011;18343;50.152;8.182;2023-12-07T11:40:49;27.17;;;14.18;;
31770;SDS011;18343;50.152;8.182;2023-12-07T11:43:37;27.70;;;13.63;;
31770;SDS011;18343;50.152;8.182;2023-12-07T11:46:25;27.52;;;14.32;;
31770;SDS011;18343;50.152;8.182;2023-12-07T11:49:10;29.05;;;14.27;;
31770;SDS011;18343;50.152;8.182;2023-12-07T11:51:58;25.58;;;14.18;;
31770;SDS011;18343;50.152;8.182;2023-12-07T11:54:44;29.23;;;14.60;;
31770;SDS011;18343;50.152;8.182;2023-12-07T11:57:29;30.50;;;15.55;;
31770;SDS011;18343;50.152;8.182;2023-12-07T12:00:15;27.20;;;14.15;;
31770;SDS011;18343;50.152;8.182;2023-12-07T12:03:01;35.90;;;16.27;;
31770;SDS011;18343;50.152;8.182;2023-12-07T12:05:46;39.92;;;14.57;;
31770;SDS011;18343;50.152;8.182;2023-12-07T12:08:32;41.40;;;16.27;;
31770;SDS011;18343;50.152;8.182;2023-12-07T12:11:17;42.53;;;14.73;;
31770;SDS011;18343;50.152;8.182;2023-12-07T12:14:01;33.17;;;14.93;;
31770;SDS011;18343;50.152;8.182;2023-12-07T12:16:46;42.47;;;16.52;;
31770;SDS011;18343;50.152;8.182;2023-12-07T12:19:32;79.25;;;16.60;;
31770;SDS011;18343;50.152;8.182;2023-12-07T12:22:16;43.58;;;17.17;;
31770;SDS011;18343;50.152;8.182;2023-12-07T12:25:03;42.50;;;17.67;;
31770;SDS011;18343;50.152;8.182;2023-12-07T12:27:49;36.95;;;17.42;;
31770;SDS011;18343;50.152;8.182;2023-12-07T12:30:35;34.90;;;16.17;;
31770;SDS011;18343;50.152;8.182;2023-12-07T12:33:22;35.83;;;17.23;;
31770;SDS011;18343;50.152;8.182;2023-12-07T12:36:07;38.17;;;16.38;;
31770;SDS011;18343;50.152;8.182;2023-12-07T12:38:51;33.35;;;15.68;;
31770;SDS011;18343;50.152;8.182;2023-12-07T12:41:43;61.08;;;17.30;;
31770;SDS011;18343;50.152;8.182;2023-12-07T12:44:27;33.78;;;15.82;;
31770;SDS011;18343;50.152;8.182;2023-12-07T12:47:13;37.92;;;17.15;;
31770;SDS011;18343;50.152;8.182;2023-12-07T12:49:58;58.67;;;17.05;;
31770;SDS011;18343;50.152;8.182;2023-12-07T12:52:43;34.58;;;15.93;;
31770;SDS011;18343;50.152;8.182;2023-12-07T12:55:30;31.45;;;14.82;;
31770;SDS011;18343;50.152;8.182;2023-12-07T12:58:17;37.58;;;16.05;;
31770;SDS011;18343;50.152;8.182;2023-12-07T13:01:03;42.88;;;14.75;;
31770;SDS011;18343;50.152;8.182;2023-12-07T13:03:48;45.38;;;15.98;;
31770;SDS011;18343;50.152;8.182;2023-12-07T13:06:33;37.38;;;15.57;;
31770;SDS011;18343;50.152;8.182;2023-12-07T13:09:18;47.80;;;16.55;;
31770;SDS011;18343;50.152;8.182;2023-12-07T13:12:03;61.60;;;16.45;;
31770;SDS011;18343;50.152;8.182;2023-12-07T13:14:50;38.20;;;15.45;;
31770;SDS011;18343;50.152;8.182;2023-12-07T13:17:34;42.97;;;13.98;;
31770;SDS011;18343;50.152;8.182;2023-12-07T13:20:19;81.22;;;15.55;;
31770;SDS011;18343;50.152;8.182;2023-12-07T13:23:04;58.80;;;15.75;;
31770;SDS011;18343;50.152;8.182;2023-12-07T13:25:48;87.78;;;15.93;;
31770;SDS011;18343;50.152;8.182;2023-12-07T13:28:33;144.55;;;15.38;;
31770;SDS011;18343;50.152;8.182;2023-12-07T13:31:19;92.53;;;15.10;;
31770;SDS011;18343;50.152;8.182;2023-12-07T13:34:04;87.57;;;14.35;;
31770;SDS011;18343;50.152;8.182;2023-12-07T13:36:49;118.03;;;17.05;;
31770;SDS011;18343;50.152;8.182;2023-12-07T13:39:34;100.18;;;18.33;;
31770;SDS011;18343;50.152;8.182;2023-12-07T13:42:19;115.82;;;20.20;;
31770;SDS011;18343;50.152;8.182;2023-12-07T13:45:04;180.77;;;18.75;;
31770;SDS011;18343;50.152;8.182;2023-12-07T13:47:50;178.40;;;18.80;;
31770;SDS011;18343;50.152;8.182;2023-12-07T13:50:35;207.60;;;19.27;;
31770;SDS011;18343;50.152;8.182;2023-12-07T13:53:20;100.25;;;18.33;;
31770;SDS011;18343;50.152;8.182;2023-12-07T13:56:05;60.85;;;16.08;;
31770;SDS011;18343;50.152;8.182;2023-12-07T13:58:51;49.13;;;17.15;;
31770;SDS011;18343;50.152;8.182;2023-12-07T14:01:36;43.90;;;16.67;;
31770;SDS011;18343;50.152;8.182;2023-12-07T14:04:22;48.80;;;16.88;;
31770;SDS011;18343;50.152;8.182;2023-12-07T14:07:07;44.55;;;16.40;;
31770;SDS011;18343;50.152;8.182;2023-12-07T14:09:54;40.10;;;15.95;;
31770;SDS011;18343;50.152;8.182;2023-12-07T14:12:38;50.00;;;17.77;;
31770;SDS011;18343;50.152;8.182;2023-12-07T14:15:23;48.70;;;19.15;;
31770;SDS011;18343;50.152;8.182;2023-12-07T14:18:09;41.83;;;16.20;;
31770;SDS011;18343;50.152;8.182;2023-12-07T14:20:54;56.95;;;18.52;;
31770;SDS011;18343;50.152;8.182;2023-12-07T14:23:39;48.17;;;17.77;;
31770;SDS011;18343;50.152;8.182;2023-12-07T14:26:24;50.10;;;18.67;;
31770;SDS011;18343;50.152;8.182;2023-12-07T14:29:08;49.40;;;18.42;;
31770;SDS011;18343;50.152;8.182;2023-12-07T14:31:53;57.85;;;17.23;;
31770;SDS011;18343;50.152;8.182;2023-12-07T14:34:38;55.97;;;18.85;;
31770;SDS011;18343;50.152;8.182;2023-12-07T14:37:24;54.85;;;20.63;;
31770;SDS011;18343;50.152;8.182;2023-12-07T14:40:09;51.13;;;19.48;;
31770;SDS011;18343;50.152;8.182;2023-12-07T14:42:54;53.72;;;18.48;;
31770;SDS011;18343;50.152;8.182;2023-12-07T14:45:39;48.50;;;19.63;;
31770;SDS011;18343;50.152;8.182;2023-12-07T14:48:23;50.58;;;17.63;;
31770;SDS011;18343;50.152;8.182;2023-12-07T14:51:08;42.88;;;17.50;;
31770;SDS011;18343;50.152;8.182;2023-12-07T14:53:54;50.85;;;16.25;;
31770;SDS011;18343;50.152;8.182;2023-12-07T14:56:39;44.35;;;16.20;;
31770;SDS011;18343;50.152;8.182;2023-12-07T14:59:23;45.00;;;17.30;;
31770;SDS011;18343;50.152;8.182;2023-12-07T15:02:08;52.95;;;15.27;;
31770;SDS011;18343;50.152;8.182;2023-12-07T15:04:53;52.08;;;15.77;;
31770;SDS011;18343;50.152;8.182;2023-12-07T15:07:37;67.70;;;16.23;;
31770;SDS011;18343;50.152;8.182;2023-12-07T15:10:23;56.28;;;16.25;;
31770;SDS011;18343;50.152;8.182;2023-12-07T15:13:09;60.10;;;15.95;;
31770;SDS011;18343;50.152;8.182;2023-12-07T15:16:12;72.20;;;15.68;;
31770;SDS011;18343;50.152;8.182;2023-12-07T15:18:56;82.22;;;17.65;;
31770;SDS011;18343;50.152;8.182;2023-12-07T15:21:41;71.13;;;16.13;;
31770;SDS011;18343;50.152;8.182;2023-12-07T15:24:26;69.65;;;17.33;;
31770;SDS011;18343;50.152;8.182;2023-12-07T15:27:12;60.00;;;17.05;;
31770;SDS011;18343;50.152;8.182;2023-12-07T15:29:56;67.72;;;16.95;;
31770;SDS011;18343;50.152;8.182;2023-12-07T15:32:41;47.63;;;15.30;;
31770;SDS011;18343;50.152;8.182;2023-12-07T15:35:27;58.78;;;17.45;;
31770;SDS011;18343;50.152;8.182;2023-12-07T15:38:11;57.83;;;18.27;;
31770;SDS011;18343;50.152;8.182;2023-12-07T15:40:56;47.20;;;18.25;;
31770;SDS011;18343;50.152;8.182;2023-12-07T15:43:43;53.88;;;18.63;;
31770;SDS011;18343;50.152;8.182;2023-12-07T15:46:27;52.95;;;18.73;;
31770;SDS011;18343;50.152;8.182;2023-12-07T15:49:12;46.95;;;16.83;;
31770;SDS011;18343;50.152;8.182;2023-12-07T15:51:57;50.65;;;16.23;;
31770;SDS011;18343;50.152;8.182;2023-12-07T15:54:42;51.85;;;18.67;;
31770;SDS011;18343;50.152;8.182;2023-12-07T15:57:27;54.65;;;20.27;;
31770;SDS011;18343;50.152;8.182;2023-12-07T16:00:14;53.90;;;19.15;;
31770;SDS011;18343;50.152;8.182;2023-12-07T16:02:59;55.88;;;20.80;;
31770;SDS011;18343;50.152;8.182;2023-12-07T16:05:45;55.17;;;19.25;;